sensor_id;sensor_type;location;lat;lon;timestamp;temperature;humidity
78886;DHT22;68269;52.514;5.722;2023-12-20T00:00:44;7.80;75.30
78886;DHT22;68269;52.514;5.722;2023-12-20T00:03:13;7.80;75.40
78886;DHT22;68269;52.514;5.722;2023-12-20T00:05:42;7.80;75.40
78886;DHT22;68269;52.514;5.722;2023-12-20T00:08:11;7.80;75.40
78886;DHT22;68269;52.514;5.722;2023-12-20T00:10:41;7.80;75.40
78886;DHT22;68269;52.514;5.722;2023-12-20T00:13:13;7.80;75.40
78886;DHT22;68269;52.514;5.722;2023-12-20T00:15:42;7.80;75.40
78886;DHT22;68269;52.514;5.722;2023-12-20T00:18:11;7.80;75.40
78886;DHT22;68269;52.514;5.722;2023-12-20T00:20:40;7.80;75.30
78886;DHT22;68269;52.514;5.722;2023-12-20T00:23:10;7.60;75.40
78886;DHT22;68269;52.514;5.722;2023-12-20T00:25:39;7.60;75.40
78886;DHT22;68269;52.514;5.722;2023-12-20T00:28:08;7.60;75.40
78886;DHT22;68269;52.514;5.722;2023-12-20T00:30:40;7.60;75.40
78886;DHT22;68269;52.514;5.722;2023-12-20T00:33:10;7.60;75.40
78886;DHT22;68269;52.514;5.722;2023-12-20T00:35:39;7.60;75.30
78886;DHT22;68269;52.514;5.722;2023-12-20T00:38:08;7.50;75.40
78886;DHT22;68269;52.514;5.722;2023-12-20T00:40:38;7.50;75.40
78886;DHT22;68269;52.514;5.722;2023-12-20T00:43:07;7.50;75.40
78886;DHT22;68269;52.514;5.722;2023-12-20T00:45:36;7.50;75.40
78886;DHT22;68269;52.514;5.722;2023-12-20T00:48:08;7.50;75.30
78886;DHT22;68269;52.514;5.722;2023-12-20T00:50:38;7.40;75.30
78886;DHT22;68269;52.514;5.722;2023-12-20T00:53:07;7.40;75.40
78886;DHT22;68269;52.514;5.722;2023-12-20T00:55:36;7.40;75.30
78886;DHT22;68269;52.514;5.722;2023-12-20T00:58:06;7.40;75.20
78886;DHT22;68269;52.514;5.722;2023-12-20T01:00:36;7.40;75.20
78886;DHT22;68269;52.514;5.722;2023-12-20T01:03:07;7.40;75.20
78886;DHT22;68269;52.514;5.722;2023-12-20T01:05:37;7.40;75.20
78886;DHT22;68269;52.514;5.722;2023-12-20T01:08:06;7.40;75.20
78886;DHT22;68269;52.514;5.722;2023-12-20T01:10:36;7.40;75.20
78886;DHT22;68269;52.514;5.722;2023-12-20T01:13:05;7.40;75.10
78886;DHT22;68269;52.514;5.722;2023-12-20T01:15:32;7.40;75.20
78886;DHT22;68269;52.514;5.722;2023-12-20T01:18:01;7.40;75.10
78886;DHT22;68269;52.514;5.722;2023-12-20T01:20:33;7.50;75.10
78886;DHT22;68269;52.514;5.722;2023-12-20T01:23:02;7.50;75.00
78886;DHT22;68269;52.514;5.722;2023-12-20T01:25:31;7.50;75.00
78886;DHT22;68269;52.514;5.722;2023-12-20T01:28:01;7.50;75.00
78886;DHT22;68269;52.514;5.722;2023-12-20T01:30:30;7.50;75.00
78886;DHT22;68269;52.514;5.722;2023-12-20T01:33:00;7.50;75.00
78886;DHT22;68269;52.514;5.722;2023-12-20T01:35:31;7.40;75.00
78886;DHT22;68269;52.514;5.722;2023-12-20T01:38:01;7.40;75.10
78886;DHT22;68269;52.514;5.722;2023-12-20T01:40:30;7.40;75.00
78886;DHT22;68269;52.514;5.722;2023-12-20T01:42:59;7.40;75.10
78886;DHT22;68269;52.514;5.722;2023-12-20T01:45:29;7.40;75.10
78886;DHT22;68269;52.514;5.722;2023-12-20T01:47:59;7.40;75.10
78886;DHT22;68269;52.514;5.722;2023-12-20T01:50:32;7.40;75.10
78886;DHT22;68269;52.514;5.722;2023-12-20T01:53:04;7.40;75.10
78886;DHT22;68269;52.514;5.722;2023-12-20T01:55:36;7.40;75.10
78886;DHT22;68269;52.514;5.722;2023-12-20T01:58:06;7.50;75.00
78886;DHT22;68269;52.514;5.722;2023-12-20T02:00:36;7.50;74.90
78886;DHT22;68269;52.514;5.722;2023-12-20T02:03:06;7.50;74.90
78886;DHT22;68269;52.514;5.722;2023-12-20T02:05:38;7.50;74.90
78886;DHT22;68269;52.514;5.722;2023-12-20T02:08:08;7.50;74.90
78886;DHT22;68269;52.514;5.722;2023-12-20T02:10:37;7.50;74.90
78886;DHT22;68269;52.514;5.722;2023-12-20T02:13:06;7.50;74.90
78886;DHT22;68269;52.514;5.722;2023-12-20T02:15:36;7.50;74.80
78886;DHT22;68269;52.514;5.722;2023-12-20T02:18:07;7.50;74.80
78886;DHT22;68269;52.514;5.722;2023-12-20T02:20:39;7.50;74.90
78886;DHT22;68269;52.514;5.722;2023-12-20T02:23:11;7.50;74.80
78886;DHT22;68269;52.514;5.722;2023-12-20T02:25:40;7.50;74.80
78886;DHT22;68269;52.514;5.722;2023-12-20T02:28:10;7.50;74.80
78886;DHT22;68269;52.514;5.722;2023-12-20T02:30:39;7.50;74.90
78886;DHT22;68269;52.514;5.722;2023-12-20T02:33:10;7.50;74.90
78886;DHT22;68269;52.514;5.722;2023-12-20T02:35:41;7.50;74.90
78886;DHT22;68269;52.514;5.722;2023-12-20T02:38:13;7.60;74.90
78886;DHT22;68269;52.514;5.722;2023-12-20T02:40:42;7.60;74.80
78886;DHT22;68269;52.514;5.722;2023-12-20T02:43:11;7.60;74.80
78886;DHT22;68269;52.514;5.722;2023-12-20T02:45:40;7.60;74.80
78886;DHT22;68269;52.514;5.722;2023-12-20T02:48:10;7.60;74.80
78886;DHT22;68269;52.514;5.722;2023-12-20T02:50:39;7.60;74.90
78886;DHT22;68269;52.514;5.722;2023-12-20T02:53:08;7.60;74.80
78886;DHT22;68269;52.514;5.722;2023-12-20T02:55:40;7.60;74.80
78886;DHT22;68269;52.514;5.722;2023-12-20T02:58:10;7.70;74.90
78886;DHT22;68269;52.514;5.722;2023-12-20T03:00:39;7.60;74.80
78886;DHT22;68269;52.514;5.722;2023-12-20T03:03:08;7.60;74.90
78886;DHT22;68269;52.514;5.722;2023-12-20T03:05:37;7.70;74.90
78886;DHT22;68269;52.514;5.722;2023-12-20T03:08:07;7.70;74.80
78886;DHT22;68269;52.514;5.722;2023-12-20T03:10:36;7.70;74.80
78886;DHT22;68269;52.514;5.722;2023-12-20T03:13:08;7.70;74.80
78886;DHT22;68269;52.514;5.722;2023-12-20T03:15:38;7.70;74.80
78886;DHT22;68269;52.514;5.722;2023-12-20T03:18:07;7.60;74.70
78886;DHT22;68269;52.514;5.722;2023-12-20T03:20:36;7.60;74.80
78886;DHT22;68269;52.514;5.722;2023-12-20T03:23:07;7.70;74.80
78886;DHT22;68269;52.514;5.722;2023-12-20T03:25:36;7.60;74.70
78886;DHT22;68269;52.514;5.722;2023-12-20T03:28:08;7.70;74.70
78886;DHT22;68269;52.514;5.722;2023-12-20T03:30:37;7.60;74.70
78886;DHT22;68269;52.514;5.722;2023-12-20T03:33:07;7.70;74.70
78886;DHT22;68269;52.514;5.722;2023-12-20T03:35:36;7.60;74.70
78886;DHT22;68269;52.514;5.722;2023-12-20T03:38:05;7.60;74.70
78886;DHT22;68269;52.514;5.722;2023-12-20T03:40:35;7.60;74.70
78886;DHT22;68269;52.514;5.722;2023-12-20T03:43:04;7.60;74.70
78886;DHT22;68269;52.514;5.722;2023-12-20T03:45:36;7.60;74.70
78886;DHT22;68269;52.514;5.722;2023-12-20T03:48:06;7.60;74.60
78886;DHT22;68269;52.514;5.722;2023-12-20T03:50:36;7.70;74.60
78886;DHT22;68269;52.514;5.722;2023-12-20T03:53:05;7.70;74.60
78886;DHT22;68269;52.514;5.722;2023-12-20T03:55:34;7.70;74.60
78886;DHT22;68269;52.514;5.722;2023-12-20T03:58:04;7.70;74.60
78886;DHT22;68269;52.514;5.722;2023-12-20T04:00:36;7.70;74.50
78886;DHT22;68269;52.514;5.722;2023-12-20T04:03:05;7.70;74.60
78886;DHT22;68269;52.514;5.722;2023-12-20T04:05:34;7.70;74.50
78886;DHT22;68269;52.514;5.722;2023-12-20T04:08:04;7.70;74.50
78886;DHT22;68269;52.514;5.722;2023-12-20T04:10:33;7.60;74.50
78886;DHT22;68269;52.514;5.722;2023-12-20T04:13:03;7.60;74.50
78886;DHT22;68269;52.514;5.722;2023-12-20T04:15:35;7.60;74.50
78886;DHT22;68269;52.514;5.722;2023-12-20T04:18:05;7.50;74.60
78886;DHT22;68269;52.514;5.722;2023-12-20T04:20:34;7.50;74.60
78886;DHT22;68269;52.514;5.722;2023-12-20T04:23:03;7.50;74.50
78886;DHT22;68269;52.514;5.722;2023-12-20T04:25:33;7.50;74.60
78886;DHT22;68269;52.514;5.722;2023-12-20T04:28:03;7.50;74.50
78886;DHT22;68269;52.514;5.722;2023-12-20T04:30:33;7.50;74.50
78886;DHT22;68269;52.514;5.722;2023-12-20T04:33:05;7.50;74.50
78886;DHT22;68269;52.514;5.722;2023-12-20T04:35:34;7.50;74.40
78886;DHT22;68269;52.514;5.722;2023-12-20T04:38:03;7.50;74.40
78886;DHT22;68269;52.514;5.722;2023-12-20T04:40:32;7.50;74.40
78886;DHT22;68269;52.514;5.722;2023-12-20T04:43:02;7.50;74.50
78886;DHT22;68269;52.514;5.722;2023-12-20T04:45:31;7.50;74.40
78886;DHT22;68269;52.514;5.722;2023-12-20T04:48:04;7.50;74.40
78886;DHT22;68269;52.514;5.722;2023-12-20T04:50:33;7.60;74.30
78886;DHT22;68269;52.514;5.722;2023-12-20T04:53:03;7.50;74.30
78886;DHT22;68269;52.514;5.722;2023-12-20T04:55:32;7.60;74.30
78886;DHT22;68269;52.514;5.722;2023-12-20T04:58:01;7.50;74.30
78886;DHT22;68269;52.514;5.722;2023-12-20T05:00:31;7.50;74.30
78886;DHT22;68269;52.514;5.722;2023-12-20T05:03:00;7.60;74.30
78886;DHT22;68269;52.514;5.722;2023-12-20T05:05:33;7.60;74.20
78886;DHT22;68269;52.514;5.722;2023-12-20T05:08:02;7.70;74.20
78886;DHT22;68269;52.514;5.722;2023-12-20T05:10:32;7.70;74.20
78886;DHT22;68269;52.514;5.722;2023-12-20T05:13:02;7.80;74.20
78886;DHT22;68269;52.514;5.722;2023-12-20T05:15:32;7.70;74.20
78886;DHT22;68269;52.514;5.722;2023-12-20T05:18:01;7.70;74.20
78886;DHT22;68269;52.514;5.722;2023-12-20T05:20:33;7.70;74.20
78886;DHT22;68269;52.514;5.722;2023-12-20T05:23:02;7.70;74.20
78886;DHT22;68269;52.514;5.722;2023-12-20T05:25:32;7.70;74.20
78886;DHT22;68269;52.514;5.722;2023-12-20T05:28:01;7.80;74.20
78886;DHT22;68269;52.514;5.722;2023-12-20T05:30:30;7.80;74.20
78886;DHT22;68269;52.514;5.722;2023-12-20T05:33:00;7.80;74.20
78886;DHT22;68269;52.514;5.722;2023-12-20T05:35:29;7.80;74.10
78886;DHT22;68269;52.514;5.722;2023-12-20T05:38:01;7.80;74.10
78886;DHT22;68269;52.514;5.722;2023-12-20T05:40:31;7.80;74.10
78886;DHT22;68269;52.514;5.722;2023-12-20T05:43:00;7.80;74.10
78886;DHT22;68269;52.514;5.722;2023-12-20T05:45:29;7.90;74.00
78886;DHT22;68269;52.514;5.722;2023-12-20T05:47:58;7.90;74.00
78886;DHT22;68269;52.514;5.722;2023-12-20T05:50:27;8.00;73.90
78886;DHT22;68269;52.514;5.722;2023-12-20T05:52:57;8.00;74.00
78886;DHT22;68269;52.514;5.722;2023-12-20T05:55:29;8.00;74.00
78886;DHT22;68269;52.514;5.722;2023-12-20T05:57:58;8.00;74.00
78886;DHT22;68269;52.514;5.722;2023-12-20T06:00:27;8.00;73.90
78886;DHT22;68269;52.514;5.722;2023-12-20T06:02:56;8.00;74.00
78886;DHT22;68269;52.514;5.722;2023-12-20T06:05:25;8.00;74.00
78886;DHT22;68269;52.514;5.722;2023-12-20T06:07:55;8.00;74.00
78886;DHT22;68269;52.514;5.722;2023-12-20T06:10:30;8.00;73.90
78886;DHT22;68269;52.514;5.722;2023-12-20T06:12:59;8.00;74.00
78886;DHT22;68269;52.514;5.722;2023-12-20T06:15:30;8.00;73.90
78886;DHT22;68269;52.514;5.722;2023-12-20T06:17:59;8.00;73.90
78886;DHT22;68269;52.514;5.722;2023-12-20T06:20:29;8.00;73.90
78886;DHT22;68269;52.514;5.722;2023-12-20T06:22:58;8.00;73.90
78886;DHT22;68269;52.514;5.722;2023-12-20T06:25:30;8.00;73.90
78886;DHT22;68269;52.514;5.722;2023-12-20T06:27:59;8.00;73.80
78886;DHT22;68269;52.514;5.722;2023-12-20T06:30:29;8.00;73.90
78886;DHT22;68269;52.514;5.722;2023-12-20T06:32:59;8.10;73.80
78886;DHT22;68269;52.514;5.722;2023-12-20T06:35:28;8.10;73.80
78886;DHT22;68269;52.514;5.722;2023-12-20T06:37:57;8.00;73.80
78886;DHT22;68269;52.514;5.722;2023-12-20T06:40:30;8.00;73.80
78886;DHT22;68269;52.514;5.722;2023-12-20T06:42:59;8.00;73.80
78886;DHT22;68269;52.514;5.722;2023-12-20T06:45:28;8.00;73.80
78886;DHT22;68269;52.514;5.722;2023-12-20T06:47:58;8.00;73.80
78886;DHT22;68269;52.514;5.722;2023-12-20T06:50:27;8.10;73.80
78886;DHT22;68269;52.514;5.722;2023-12-20T06:52:56;8.00;73.80
78886;DHT22;68269;52.514;5.722;2023-12-20T06:55:25;8.00;73.80
78886;DHT22;68269;52.514;5.722;2023-12-20T06:57:58;8.00;73.80
78886;DHT22;68269;52.514;5.722;2023-12-20T07:00:27;8.10;73.80
78886;DHT22;68269;52.514;5.722;2023-12-20T07:02:57;8.10;73.80
78886;DHT22;68269;52.514;5.722;2023-12-20T07:05:26;8.10;73.80
78886;DHT22;68269;52.514;5.722;2023-12-20T07:07:55;8.10;73.80
78886;DHT22;68269;52.514;5.722;2023-12-20T07:10:24;8.10;73.80
78886;DHT22;68269;52.514;5.722;2023-12-20T07:12:54;8.10;73.80
78886;DHT22;68269;52.514;5.722;2023-12-20T07:15:26;8.10;73.80
78886;DHT22;68269;52.514;5.722;2023-12-20T07:17:55;8.20;73.80
78886;DHT22;68269;52.514;5.722;2023-12-20T07:20:26;8.20;73.70
78886;DHT22;68269;52.514;5.722;2023-12-20T07:22:56;8.20;73.70
78886;DHT22;68269;52.514;5.722;2023-12-20T07:25:25;8.10;73.70
78886;DHT22;68269;52.514;5.722;2023-12-20T07:27:54;8.10;73.80
78886;DHT22;68269;52.514;5.722;2023-12-20T07:30:26;8.10;73.70
78886;DHT22;68269;52.514;5.722;2023-12-20T07:32:55;8.10;73.80
78886;DHT22;68269;52.514;5.722;2023-12-20T07:35:24;8.20;73.80
78886;DHT22;68269;52.514;5.722;2023-12-20T07:37:54;8.20;73.70
78886;DHT22;68269;52.514;5.722;2023-12-20T07:40:23;8.20;73.70
78886;DHT22;68269;52.514;5.722;2023-12-20T07:42:52;8.20;73.80
78886;DHT22;68269;52.514;5.722;2023-12-20T07:45:24;8.20;73.80
78886;DHT22;68269;52.514;5.722;2023-12-20T07:47:53;8.20;73.80
78886;DHT22;68269;52.514;5.722;2023-12-20T07:50:23;8.20;73.70
78886;DHT22;68269;52.514;5.722;2023-12-20T07:52:52;8.20;73.70
78886;DHT22;68269;52.514;5.722;2023-12-20T07:55:21;8.20;73.80
78886;DHT22;68269;52.514;5.722;2023-12-20T07:57:51;8.30;73.70
78886;DHT22;68269;52.514;5.722;2023-12-20T08:00:20;8.30;73.70
78886;DHT22;68269;52.514;5.722;2023-12-20T08:02:52;8.30;73.60
78886;DHT22;68269;52.514;5.722;2023-12-20T08:05:21;8.30;73.60
78886;DHT22;68269;52.514;5.722;2023-12-20T08:07:51;8.30;73.60
78886;DHT22;68269;52.514;5.722;2023-12-20T08:10:20;8.30;73.60
78886;DHT22;68269;52.514;5.722;2023-12-20T08:12:49;8.40;73.60
78886;DHT22;68269;52.514;5.722;2023-12-20T08:15:18;8.40;73.50
78886;DHT22;68269;52.514;5.722;2023-12-20T08:17:48;8.40;73.50
78886;DHT22;68269;52.514;5.722;2023-12-20T08:20:19;8.30;73.50
78886;DHT22;68269;52.514;5.722;2023-12-20T08:22:49;8.40;73.50
78886;DHT22;68269;52.514;5.722;2023-12-20T08:25:18;8.30;73.50
78886;DHT22;68269;52.514;5.722;2023-12-20T08:27:47;8.30;73.50
78886;DHT22;68269;52.514;5.722;2023-12-20T08:30:16;8.40;73.50
78886;DHT22;68269;52.514;5.722;2023-12-20T08:32:48;8.40;73.50
78886;DHT22;68269;52.514;5.722;2023-12-20T08:35:20;8.40;73.50
78886;DHT22;68269;52.514;5.722;2023-12-20T08:37:50;8.40;73.50
78886;DHT22;68269;52.514;5.722;2023-12-20T08:40:19;8.40;73.40
78886;DHT22;68269;52.514;5.722;2023-12-20T08:42:49;8.40;73.40
78886;DHT22;68269;52.514;5.722;2023-12-20T08:45:18;8.40;73.40
78886;DHT22;68269;52.514;5.722;2023-12-20T08:47:48;8.40;73.40
78886;DHT22;68269;52.514;5.722;2023-12-20T08:50:19;8.40;73.40
78886;DHT22;68269;52.514;5.722;2023-12-20T08:52:49;8.50;73.30
78886;DHT22;68269;52.514;5.722;2023-12-20T08:55:19;8.50;73.30
78886;DHT22;68269;52.514;5.722;2023-12-20T08:57:48;8.50;73.30
78886;DHT22;68269;52.514;5.722;2023-12-20T09:00:18;8.50;73.30
78886;DHT22;68269;52.514;5.722;2023-12-20T09:02:52;8.50;73.20
78886;DHT22;68269;52.514;5.722;2023-12-20T09:05:24;8.60;73.20
78886;DHT22;68269;52.514;5.722;2023-12-20T09:07:53;8.50;73.20
78886;DHT22;68269;52.514;5.722;2023-12-20T09:10:22;8.60;73.20
78886;DHT22;68269;52.514;5.722;2023-12-20T09:12:52;8.60;73.20
78886;DHT22;68269;52.514;5.722;2023-12-20T09:15:23;8.60;73.10
78886;DHT22;68269;52.514;5.722;2023-12-20T09:17:53;8.60;73.10
78886;DHT22;68269;52.514;5.722;2023-12-20T09:20:25;8.60;73.10
78886;DHT22;68269;52.514;5.722;2023-12-20T09:22:54;8.70;73.00
78886;DHT22;68269;52.514;5.722;2023-12-20T09:25:23;8.70;73.00
78886;DHT22;68269;52.514;5.722;2023-12-20T09:27:53;8.60;73.10
78886;DHT22;68269;52.514;5.722;2023-12-20T09:30:22;8.60;73.10
78886;DHT22;68269;52.514;5.722;2023-12-20T09:32:51;8.60;73.10
78886;DHT22;68269;52.514;5.722;2023-12-20T09:35:21;8.60;73.10
78886;DHT22;68269;52.514;5.722;2023-12-20T09:37:52;8.60;73.10
78886;DHT22;68269;52.514;5.722;2023-12-20T09:40:22;8.60;73.10
78886;DHT22;68269;52.514;5.722;2023-12-20T09:42:56;8.60;73.10
78886;DHT22;68269;52.514;5.722;2023-12-20T09:45:26;8.60;73.00
78886;DHT22;68269;52.514;5.722;2023-12-20T09:47:55;8.70;73.00
78886;DHT22;68269;52.514;5.722;2023-12-20T09:50:26;8.80;73.00
78886;DHT22;68269;52.514;5.722;2023-12-20T09:53:01;8.80;72.90
78886;DHT22;68269;52.514;5.722;2023-12-20T09:55:32;8.90;72.90
78886;DHT22;68269;52.514;5.722;2023-12-20T09:58:01;8.90;72.80
78886;DHT22;68269;52.514;5.722;2023-12-20T10:00:32;9.00;72.70
78886;DHT22;68269;52.514;5.722;2023-12-20T10:03:01;9.00;72.70
78886;DHT22;68269;52.514;5.722;2023-12-20T10:05:32;9.20;72.60
78886;DHT22;68269;52.514;5.722;2023-12-20T10:08:05;9.20;72.50
78886;DHT22;68269;52.514;5.722;2023-12-20T10:10:34;9.20;72.40
78886;DHT22;68269;52.514;5.722;2023-12-20T10:13:05;9.20;72.40
78886;DHT22;68269;52.514;5.722;2023-12-20T10:15:35;9.20;72.50
78886;DHT22;68269;52.514;5.722;2023-12-20T10:18:06;9.20;72.50
78886;DHT22;68269;52.514;5.722;2023-12-20T10:20:35;9.20;72.60
78886;DHT22;68269;52.514;5.722;2023-12-20T10:23:08;9.20;72.60
78886;DHT22;68269;52.514;5.722;2023-12-20T10:25:37;9.20;72.60
78886;DHT22;68269;52.514;5.722;2023-12-20T10:28:12;9.20;72.70
78886;DHT22;68269;52.514;5.722;2023-12-20T10:30:44;9.20;72.70
78886;DHT22;68269;52.514;5.722;2023-12-20T10:33:13;9.20;72.80
78886;DHT22;68269;52.514;5.722;2023-12-20T10:35:43;9.20;72.80
78886;DHT22;68269;52.514;5.722;2023-12-20T10:38:16;9.20;72.70
78886;DHT22;68269;52.514;5.722;2023-12-20T10:40:46;9.20;72.70
78886;DHT22;68269;52.514;5.722;2023-12-20T10:43:15;9.20;72.60
78886;DHT22;68269;52.514;5.722;2023-12-20T10:45:45;9.20;72.70
78886;DHT22;68269;52.514;5.722;2023-12-20T10:48:15;9.20;72.70
78886;DHT22;68269;52.514;5.722;2023-12-20T10:50:45;9.20;72.80
78886;DHT22;68269;52.514;5.722;2023-12-20T10:53:17;9.20;72.80
78886;DHT22;68269;52.514;5.722;2023-12-20T10:55:47;9.20;72.90
78886;DHT22;68269;52.514;5.722;2023-12-20T10:58:18;9.10;73.00
78886;DHT22;68269;52.514;5.722;2023-12-20T11:00:51;9.00;73.00
78886;DHT22;68269;52.514;5.722;2023-12-20T11:03:25;9.00;73.10
78886;DHT22;68269;52.514;5.722;2023-12-20T11:06:00;9.00;73.00
78886;DHT22;68269;52.514;5.722;2023-12-20T11:08:38;8.90;73.10
78886;DHT22;68269;52.514;5.722;2023-12-20T11:11:13;8.90;73.20
78886;DHT22;68269;52.514;5.722;2023-12-20T11:13:53;8.90;73.30
78886;DHT22;68269;52.514;5.722;2023-12-20T11:16:23;8.90;73.30
78886;DHT22;68269;52.514;5.722;2023-12-20T11:18:52;8.90;73.30
78886;DHT22;68269;52.514;5.722;2023-12-20T11:21:22;8.90;73.40
78886;DHT22;68269;52.514;5.722;2023-12-20T11:23:54;8.90;73.40
78886;DHT22;68269;52.514;5.722;2023-12-20T11:26:27;8.90;73.40
78886;DHT22;68269;52.514;5.722;2023-12-20T11:29:05;8.90;73.30
78886;DHT22;68269;52.514;5.722;2023-12-20T11:31:54;9.00;73.30
78886;DHT22;68269;52.514;5.722;2023-12-20T11:34:27;9.00;73.30
78886;DHT22;68269;52.514;5.722;2023-12-20T11:37:00;9.00;73.30
78886;DHT22;68269;52.514;5.722;2023-12-20T11:39:31;8.90;73.30
78886;DHT22;68269;52.514;5.722;2023-12-20T11:42:05;8.90;73.30
78886;DHT22;68269;52.514;5.722;2023-12-20T11:44:36;8.90;73.40
78886;DHT22;68269;52.514;5.722;2023-12-20T11:47:07;8.80;73.60
78886;DHT22;68269;52.514;5.722;2023-12-20T11:49:38;8.90;73.60
78886;DHT22;68269;52.514;5.722;2023-12-20T11:52:07;8.90;73.70
78886;DHT22;68269;52.514;5.722;2023-12-20T11:54:39;8.90;73.70
78886;DHT22;68269;52.514;5.722;2023-12-20T11:57:08;8.90;73.70
78886;DHT22;68269;52.514;5.722;2023-12-20T11:59:38;8.90;73.70
78886;DHT22;68269;52.514;5.722;2023-12-20T12:02:07;8.90;73.80
78886;DHT22;68269;52.514;5.722;2023-12-20T12:04:36;8.90;73.80
78886;DHT22;68269;52.514;5.722;2023-12-20T12:07:05;8.90;73.90
78886;DHT22;68269;52.514;5.722;2023-12-20T12:09:35;8.90;73.90
78886;DHT22;68269;52.514;5.722;2023-12-20T12:12:08;8.90;73.90
78886;DHT22;68269;52.514;5.722;2023-12-20T12:14:37;8.90;74.00
78886;DHT22;68269;52.514;5.722;2023-12-20T12:17:10;8.90;73.90
78886;DHT22;68269;52.514;5.722;2023-12-20T12:19:40;8.80;74.00
78886;DHT22;68269;52.514;5.722;2023-12-20T12:22:10;8.90;74.00
78886;DHT22;68269;52.514;5.722;2023-12-20T12:24:40;8.90;74.00
78886;DHT22;68269;52.514;5.722;2023-12-20T12:27:13;8.90;73.90
78886;DHT22;68269;52.514;5.722;2023-12-20T12:30:00;9.00;73.80
78886;DHT22;68269;52.514;5.722;2023-12-20T12:32:30;9.00;73.80
78886;DHT22;68269;52.514;5.722;2023-12-20T12:34:59;9.00;73.80
78886;DHT22;68269;52.514;5.722;2023-12-20T12:37:29;8.90;73.80
78886;DHT22;68269;52.514;5.722;2023-12-20T12:39:58;8.90;73.80
78886;DHT22;68269;52.514;5.722;2023-12-20T12:42:30;8.90;73.80
78886;DHT22;68269;52.514;5.722;2023-12-20T12:44:59;8.90;73.80
78886;DHT22;68269;52.514;5.722;2023-12-20T12:47:29;8.90;73.80
78886;DHT22;68269;52.514;5.722;2023-12-20T12:49:58;8.90;73.70
78886;DHT22;68269;52.514;5.722;2023-12-20T12:52:27;8.90;73.80
78886;DHT22;68269;52.514;5.722;2023-12-20T12:54:57;9.00;73.70
78886;DHT22;68269;52.514;5.722;2023-12-20T12:57:26;9.00;73.70
78886;DHT22;68269;52.514;5.722;2023-12-20T12:59:58;8.90;73.70
78886;DHT22;68269;52.514;5.722;2023-12-20T13:02:28;8.90;73.70
78886;DHT22;68269;52.514;5.722;2023-12-20T13:04:58;8.90;73.70
78886;DHT22;68269;52.514;5.722;2023-12-20T13:07:28;8.80;73.70
78886;DHT22;68269;52.514;5.722;2023-12-20T13:09:59;8.80;73.80
78886;DHT22;68269;52.514;5.722;2023-12-20T13:12:28;8.80;73.80
78886;DHT22;68269;52.514;5.722;2023-12-20T13:15:00;8.80;73.80
78886;DHT22;68269;52.514;5.722;2023-12-20T13:17:30;8.80;73.80
78886;DHT22;68269;52.514;5.722;2023-12-20T13:19:59;8.80;73.80
78886;DHT22;68269;52.514;5.722;2023-12-20T13:22:29;8.80;73.80
78886;DHT22;68269;52.514;5.722;2023-12-20T13:24:58;8.80;73.80
78886;DHT22;68269;52.514;5.722;2023-12-20T13:27:29;8.90;73.80
78886;DHT22;68269;52.514;5.722;2023-12-20T13:30:02;8.90;73.70
78886;DHT22;68269;52.514;5.722;2023-12-20T13:32:31;8.90;73.80
78886;DHT22;68269;52.514;5.722;2023-12-20T13:35:00;8.90;73.70
78886;DHT22;68269;52.514;5.722;2023-12-20T13:37:30;8.90;73.70
78886;DHT22;68269;52.514;5.722;2023-12-20T13:39:59;8.90;73.70
78886;DHT22;68269;52.514;5.722;2023-12-20T13:42:29;8.90;73.70
78886;DHT22;68269;52.514;5.722;2023-12-20T13:45:01;8.90;73.60
78886;DHT22;68269;52.514;5.722;2023-12-20T13:47:31;8.90;73.70
78886;DHT22;68269;52.514;5.722;2023-12-20T13:50:00;8.90;73.60
78886;DHT22;68269;52.514;5.722;2023-12-20T13:52:30;8.90;73.70
78886;DHT22;68269;52.514;5.722;2023-12-20T13:54:59;8.90;73.70
78886;DHT22;68269;52.514;5.722;2023-12-20T13:57:28;8.90;73.70
78886;DHT22;68269;52.514;5.722;2023-12-20T14:00:00;8.90;73.60
78886;DHT22;68269;52.514;5.722;2023-12-20T14:02:33;8.90;73.60
78886;DHT22;68269;52.514;5.722;2023-12-20T14:05:03;8.90;73.70
78886;DHT22;68269;52.514;5.722;2023-12-20T14:07:33;8.90;73.60
78886;DHT22;68269;52.514;5.722;2023-12-20T14:10:02;8.90;73.60
78886;DHT22;68269;52.514;5.722;2023-12-20T14:12:32;8.90;73.60
78886;DHT22;68269;52.514;5.722;2023-12-20T14:15:06;8.90;73.60
78886;DHT22;68269;52.514;5.722;2023-12-20T14:17:37;8.90;73.60
78886;DHT22;68269;52.514;5.722;2023-12-20T14:20:07;8.90;73.50
78886;DHT22;68269;52.514;5.722;2023-12-20T14:22:39;8.90;73.50
78886;DHT22;68269;52.514;5.722;2023-12-20T14:25:11;9.00;73.50
78886;DHT22;68269;52.514;5.722;2023-12-20T14:27:41;9.00;73.50
78886;DHT22;68269;52.514;5.722;2023-12-20T14:30:14;9.00;73.50
78886;DHT22;68269;52.514;5.722;2023-12-20T14:32:43;8.90;73.50
78886;DHT22;68269;52.514;5.722;2023-12-20T14:35:14;8.90;73.50
78886;DHT22;68269;52.514;5.722;2023-12-20T14:37:43;8.90;73.50
78886;DHT22;68269;52.514;5.722;2023-12-20T14:40:13;8.90;73.50
78886;DHT22;68269;52.514;5.722;2023-12-20T14:42:44;8.90;73.60
78886;DHT22;68269;52.514;5.722;2023-12-20T14:45:16;8.90;73.50
78886;DHT22;68269;52.514;5.722;2023-12-20T14:47:45;8.90;73.60
78886;DHT22;68269;52.514;5.722;2023-12-20T14:50:15;8.90;73.60
78886;DHT22;68269;52.514;5.722;2023-12-20T14:52:46;8.90;73.50
78886;DHT22;68269;52.514;5.722;2023-12-20T14:55:15;8.90;73.50
78886;DHT22;68269;52.514;5.722;2023-12-20T14:57:44;8.90;73.50
78886;DHT22;68269;52.514;5.722;2023-12-20T15:00:18;8.90;73.50
78886;DHT22;68269;52.514;5.722;2023-12-20T15:02:48;8.90;73.50
78886;DHT22;68269;52.514;5.722;2023-12-20T15:05:18;8.90;73.50
78886;DHT22;68269;52.514;5.722;2023-12-20T15:07:47;8.90;73.50
78886;DHT22;68269;52.514;5.722;2023-12-20T15:10:17;8.90;73.50
78886;DHT22;68269;52.514;5.722;2023-12-20T15:12:46;9.00;73.50
78886;DHT22;68269;52.514;5.722;2023-12-20T15:15:19;8.90;73.50
78886;DHT22;68269;52.514;5.722;2023-12-20T15:17:48;8.90;73.60
78886;DHT22;68269;52.514;5.722;2023-12-20T15:20:18;8.90;73.60
78886;DHT22;68269;52.514;5.722;2023-12-20T15:22:47;8.90;73.50
78886;DHT22;68269;52.514;5.722;2023-12-20T15:25:16;8.90;73.60
78886;DHT22;68269;52.514;5.722;2023-12-20T15:27:46;8.90;73.60
78886;DHT22;68269;52.514;5.722;2023-12-20T15:30:21;8.90;73.60
78886;DHT22;68269;52.514;5.722;2023-12-20T15:32:51;8.90;73.60
78886;DHT22;68269;52.514;5.722;2023-12-20T15:35:20;8.90;73.70
78886;DHT22;68269;52.514;5.722;2023-12-20T15:37:49;8.90;73.70
78886;DHT22;68269;52.514;5.722;2023-12-20T15:40:19;8.90;73.70
78886;DHT22;68269;52.514;5.722;2023-12-20T15:42:48;8.90;73.70
78886;DHT22;68269;52.514;5.722;2023-12-20T15:45:20;8.90;73.70
78886;DHT22;68269;52.514;5.722;2023-12-20T15:47:50;8.90;73.70
78886;DHT22;68269;52.514;5.722;2023-12-20T15:50:19;8.90;73.60
78886;DHT22;68269;52.514;5.722;2023-12-20T15:52:48;8.90;73.70
78886;DHT22;68269;52.514;5.722;2023-12-20T15:55:18;8.90;73.60
78886;DHT22;68269;52.514;5.722;2023-12-20T15:57:47;8.90;73.70
78886;DHT22;68269;52.514;5.722;2023-12-20T16:00:17;8.90;73.70
78886;DHT22;68269;52.514;5.722;2023-12-20T16:02:49;8.90;73.70